sensor_id;sensor_type;location;lat;lon;timestamp;temperature;humidity
54622;DHT22;40521;53.146;6.556;2023-01-23T00:00:03;2.30;99.90
54622;DHT22;40521;53.146;6.556;2023-01-23T00:02:30;2.30;99.90
54622;DHT22;40521;53.146;6.556;2023-01-23T00:04:55;2.30;99.90
54622;DHT22;40521;53.146;6.556;2023-01-23T00:07:21;2.30;99.90
54622;DHT22;40521;53.146;6.556;2023-01-23T00:09:46;2.50;99.90
54622;DHT22;40521;53.146;6.556;2023-01-23T00:12:12;3.30;99.90
54622;DHT22;40521;53.146;6.556;2023-01-23T00:14:38;2.20;99.90
54622;DHT22;40521;53.146;6.556;2023-01-23T00:17:03;2.20;99.90
54622;DHT22;40521;53.146;6.556;2023-01-23T00:19:29;3.10;99.90
54622;DHT22;40521;53.146;6.556;2023-01-23T00:21:57;2.30;99.90
54622;DHT22;40521;53.146;6.556;2023-01-23T00:24:22;2.30;99.90
54622;DHT22;40521;53.146;6.556;2023-01-23T00:26:48;2.20;99.90
54622;DHT22;40521;53.146;6.556;2023-01-23T00:29:13;2.30;99.90
54622;DHT22;40521;53.146;6.556;2023-01-23T00:31:41;2.30;99.90
54622;DHT22;40521;53.146;6.556;2023-01-23T00:34:09;2.20;99.90
54622;DHT22;40521;53.146;6.556;2023-01-23T00:36:36;2.30;99.90
54622;DHT22;40521;53.146;6.556;2023-01-23T00:39:02;2.20;99.90
54622;DHT22;40521;53.146;6.556;2023-01-23T00:41:28;2.20;99.90
54622;DHT22;40521;53.146;6.556;2023-01-23T00:43:54;2.20;99.90
54622;DHT22;40521;53.146;6.556;2023-01-23T00:46:20;2.70;99.90
54622;DHT22;40521;53.146;6.556;2023-01-23T00:48:46;2.40;99.90
54622;DHT22;40521;53.146;6.556;2023-01-23T00:51:11;2.20;99.90
54622;DHT22;40521;53.146;6.556;2023-01-23T00:53:37;2.80;99.90
54622;DHT22;40521;53.146;6.556;2023-01-23T00:56:05;2.10;99.90
54622;DHT22;40521;53.146;6.556;2023-01-23T00:58:31;2.20;99.90
54622;DHT22;40521;53.146;6.556;2023-01-23T01:00:56;2.50;99.90
54622;DHT22;40521;53.146;6.556;2023-01-23T01:03:22;2.20;99.90
54622;DHT22;40521;53.146;6.556;2023-01-23T01:05:49;2.70;99.90
54622;DHT22;40521;53.146;6.556;2023-01-23T01:08:15;3.10;99.90
54622;DHT22;40521;53.146;6.556;2023-01-23T01:10:41;2.20;99.90
54622;DHT22;40521;53.146;6.556;2023-01-23T01:13:07;2.20;99.90
54622;DHT22;40521;53.146;6.556;2023-01-23T01:15:33;2.30;99.90
54622;DHT22;40521;53.146;6.556;2023-01-23T01:17:58;2.10;99.90
54622;DHT22;40521;53.146;6.556;2023-01-23T01:20:25;3.00;99.90
54622;DHT22;40521;53.146;6.556;2023-01-23T01:22:55;3.30;99.90
54622;DHT22;40521;53.146;6.556;2023-01-23T01:25:21;2.10;99.90
54622;DHT22;40521;53.146;6.556;2023-01-23T01:27:46;2.20;99.90
54622;DHT22;40521;53.146;6.556;2023-01-23T01:30:12;2.10;99.90
54622;DHT22;40521;53.146;6.556;2023-01-23T01:32:39;2.10;99.90
54622;DHT22;40521;53.146;6.556;2023-01-23T01:35:05;2.10;99.90
54622;DHT22;40521;53.146;6.556;2023-01-23T01:37:32;2.10;99.90
54622;DHT22;40521;53.146;6.556;2023-01-23T01:39:57;2.20;99.90
54622;DHT22;40521;53.146;6.556;2023-01-23T01:42:23;2.10;99.90
54622;DHT22;40521;53.146;6.556;2023-01-23T01:47:18;2.10;99.90
54622;DHT22;40521;53.146;6.556;2023-01-23T01:49:43;2.20;99.90
54622;DHT22;40521;53.146;6.556;2023-01-23T01:52:09;2.10;99.90
54622;DHT22;40521;53.146;6.556;2023-01-23T01:54:38;2.20;99.90
54622;DHT22;40521;53.146;6.556;2023-01-23T02:02:10;2.20;99.90
54622;DHT22;40521;53.146;6.556;2023-01-23T02:04:37;2.20;99.90
54622;DHT22;40521;53.146;6.556;2023-01-23T02:07:08;2.40;99.90
54622;DHT22;40521;53.146;6.556;2023-01-23T02:09:35;2.10;99.90
54622;DHT22;40521;53.146;6.556;2023-01-23T02:12:02;2.30;99.90
54622;DHT22;40521;53.146;6.556;2023-01-23T02:14:28;2.10;99.90
54622;DHT22;40521;53.146;6.556;2023-01-23T02:16:54;2.10;99.90
54622;DHT22;40521;53.146;6.556;2023-01-23T02:19:43;2.10;99.90
54622;DHT22;40521;53.146;6.556;2023-01-23T02:22:20;2.20;99.90
54622;DHT22;40521;53.146;6.556;2023-01-23T02:24:54;2.20;99.90
54622;DHT22;40521;53.146;6.556;2023-01-23T02:27:23;2.20;99.90
54622;DHT22;40521;53.146;6.556;2023-01-23T02:29:48;2.20;99.90
54622;DHT22;40521;53.146;6.556;2023-01-23T02:32:16;2.10;99.90
54622;DHT22;40521;53.146;6.556;2023-01-23T02:34:43;2.40;99.90
54622;DHT22;40521;53.146;6.556;2023-01-23T02:37:09;2.60;99.90
54622;DHT22;40521;53.146;6.556;2023-01-23T02:39:36;2.20;99.90
54622;DHT22;40521;53.146;6.556;2023-01-23T02:42:01;2.60;99.90
54622;DHT22;40521;53.146;6.556;2023-01-23T02:44:29;2.20;99.90
54622;DHT22;40521;53.146;6.556;2023-01-23T02:46:59;2.20;99.90
54622;DHT22;40521;53.146;6.556;2023-01-23T02:49:25;2.20;99.90
54622;DHT22;40521;53.146;6.556;2023-01-23T02:51:51;2.20;99.90
54622;DHT22;40521;53.146;6.556;2023-01-23T02:54:18;2.20;99.90
54622;DHT22;40521;53.146;6.556;2023-01-23T02:56:44;2.20;99.90
54622;DHT22;40521;53.146;6.556;2023-01-23T02:59:10;2.20;99.90
54622;DHT22;40521;53.146;6.556;2023-01-23T03:01:54;2.20;99.90
54622;DHT22;40521;53.146;6.556;2023-01-23T03:04:20;3.00;99.90
54622;DHT22;40521;53.146;6.556;2023-01-23T03:06:45;2.30;99.90
54622;DHT22;40521;53.146;6.556;2023-01-23T03:09:12;3.50;99.90
54622;DHT22;40521;53.146;6.556;2023-01-23T03:11:38;2.20;99.90
54622;DHT22;40521;53.146;6.556;2023-01-23T03:14:05;2.20;99.90
54622;DHT22;40521;53.146;6.556;2023-01-23T03:16:31;2.20;99.90
54622;DHT22;40521;53.146;6.556;2023-01-23T03:18:57;3.20;99.90
54622;DHT22;40521;53.146;6.556;2023-01-23T03:21:26;3.50;99.90
54622;DHT22;40521;53.146;6.556;2023-01-23T03:23:52;2.20;99.90
54622;DHT22;40521;53.146;6.556;2023-01-23T03:26:17;2.20;99.90
54622;DHT22;40521;53.146;6.556;2023-01-23T03:28:43;2.20;99.90
54622;DHT22;40521;53.146;6.556;2023-01-23T03:31:27;2.50;99.90
54622;DHT22;40521;53.146;6.556;2023-01-23T03:33:53;2.20;99.90
54622;DHT22;40521;53.146;6.556;2023-01-23T03:36:18;2.20;99.90
54622;DHT22;40521;53.146;6.556;2023-01-23T03:38:44;3.70;99.90
54622;DHT22;40521;53.146;6.556;2023-01-23T03:41:29;2.20;99.90
54622;DHT22;40521;53.146;6.556;2023-01-23T03:43:55;2.20;99.90
54622;DHT22;40521;53.146;6.556;2023-01-23T03:46:21;2.20;99.90
54622;DHT22;40521;53.146;6.556;2023-01-23T03:48:50;2.10;99.90
54622;DHT22;40521;53.146;6.556;2023-01-23T03:51:16;2.60;99.90
54622;DHT22;40521;53.146;6.556;2023-01-23T03:53:41;2.10;99.90
54622;DHT22;40521;53.146;6.556;2023-01-23T03:56:07;2.50;99.90
54622;DHT22;40521;53.146;6.556;2023-01-23T03:58:32;2.10;99.90
54622;DHT22;40521;53.146;6.556;2023-01-23T04:00:58;2.30;99.90
54622;DHT22;40521;53.146;6.556;2023-01-23T04:03:27;2.50;99.90
54622;DHT22;40521;53.146;6.556;2023-01-23T04:05:56;2.10;99.90
54622;DHT22;40521;53.146;6.556;2023-01-23T04:08:22;2.10;99.90
54622;DHT22;40521;53.146;6.556;2023-01-23T04:10:48;3.00;99.90
54622;DHT22;40521;53.146;6.556;2023-01-23T04:13:13;2.10;99.90
54622;DHT22;40521;53.146;6.556;2023-01-23T04:15:39;2.90;99.90
54622;DHT22;40521;53.146;6.556;2023-01-23T04:18:04;2.10;99.90
54622;DHT22;40521;53.146;6.556;2023-01-23T04:20:30;2.10;99.90
54622;DHT22;40521;53.146;6.556;2023-01-23T04:22:55;2.10;99.90
54622;DHT22;40521;53.146;6.556;2023-01-23T04:25:21;2.10;99.90
54622;DHT22;40521;53.146;6.556;2023-01-23T04:27:47;2.10;99.90
54622;DHT22;40521;53.146;6.556;2023-01-23T04:30:12;2.80;99.90
54622;DHT22;40521;53.146;6.556;2023-01-23T04:32:38;2.10;99.90
54622;DHT22;40521;53.146;6.556;2023-01-23T04:35:04;2.10;99.90
54622;DHT22;40521;53.146;6.556;2023-01-23T04:37:30;2.10;99.90
54622;DHT22;40521;53.146;6.556;2023-01-23T04:39:55;2.10;99.90
54622;DHT22;40521;53.146;6.556;2023-01-23T04:42:21;2.20;99.90
54622;DHT22;40521;53.146;6.556;2023-01-23T04:44:46;3.00;99.90
54622;DHT22;40521;53.146;6.556;2023-01-23T04:47:12;2.10;99.90
54622;DHT22;40521;53.146;6.556;2023-01-23T04:49:38;2.50;99.90
54622;DHT22;40521;53.146;6.556;2023-01-23T04:52:03;2.10;99.90
54622;DHT22;40521;53.146;6.556;2023-01-23T04:54:29;2.20;99.90
54622;DHT22;40521;53.146;6.556;2023-01-23T04:56:54;2.30;99.90
54622;DHT22;40521;53.146;6.556;2023-01-23T04:59:20;2.20;99.90
54622;DHT22;40521;53.146;6.556;2023-01-23T05:01:47;2.20;99.90
54622;DHT22;40521;53.146;6.556;2023-01-23T05:04:12;2.20;99.90
54622;DHT22;40521;53.146;6.556;2023-01-23T05:06:38;2.30;99.90
54622;DHT22;40521;53.146;6.556;2023-01-23T05:09:03;2.10;99.90
54622;DHT22;40521;53.146;6.556;2023-01-23T05:11:29;2.10;99.90
54622;DHT22;40521;53.146;6.556;2023-01-23T05:13:55;2.10;99.90
54622;DHT22;40521;53.146;6.556;2023-01-23T05:16:21;2.70;99.90
54622;DHT22;40521;53.146;6.556;2023-01-23T05:18:46;2.90;99.90
54622;DHT22;40521;53.146;6.556;2023-01-23T05:21:12;2.10;99.90
54622;DHT22;40521;53.146;6.556;2023-01-23T05:23:37;3.20;99.90
54622;DHT22;40521;53.146;6.556;2023-01-23T05:26:03;2.10;99.90
54622;DHT22;40521;53.146;6.556;2023-01-23T05:28:28;2.10;99.90
54622;DHT22;40521;53.146;6.556;2023-01-23T05:30:54;3.20;99.90
54622;DHT22;40521;53.146;6.556;2023-01-23T05:33:20;3.30;99.90
54622;DHT22;40521;53.146;6.556;2023-01-23T05:35:45;2.00;99.90
54622;DHT22;40521;53.146;6.556;2023-01-23T05:38:11;2.60;99.90
54622;DHT22;40521;53.146;6.556;2023-01-23T05:40:37;2.00;99.90
54622;DHT22;40521;53.146;6.556;2023-01-23T05:43:03;2.70;99.90
54622;DHT22;40521;53.146;6.556;2023-01-23T05:45:28;2.00;99.90
54622;DHT22;40521;53.146;6.556;2023-01-23T05:47:54;3.10;99.90
54622;DHT22;40521;53.146;6.556;2023-01-23T05:50:20;2.10;99.90
54622;DHT22;40521;53.146;6.556;2023-01-23T05:52:48;2.00;99.90
54622;DHT22;40521;53.146;6.556;2023-01-23T05:55:13;2.50;99.90
54622;DHT22;40521;53.146;6.556;2023-01-23T05:57:39;2.00;99.90
54622;DHT22;40521;53.146;6.556;2023-01-23T06:00:05;2.00;99.90
54622;DHT22;40521;53.146;6.556;2023-01-23T06:02:32;2.00;99.90
54622;DHT22;40521;53.146;6.556;2023-01-23T06:04:57;2.00;99.90
54622;DHT22;40521;53.146;6.556;2023-01-23T06:07:23;2.00;99.90
54622;DHT22;40521;53.146;6.556;2023-01-23T06:09:49;2.20;99.90
54622;DHT22;40521;53.146;6.556;2023-01-23T06:12:14;2.20;99.90
54622;DHT22;40521;53.146;6.556;2023-01-23T06:14:40;2.10;99.90
54622;DHT22;40521;53.146;6.556;2023-01-23T06:17:05;2.10;99.90
54622;DHT22;40521;53.146;6.556;2023-01-23T06:19:31;2.10;99.90
54622;DHT22;40521;53.146;6.556;2023-01-23T06:21:57;2.60;99.90
54622;DHT22;40521;53.146;6.556;2023-01-23T06:24:22;2.00;99.90
54622;DHT22;40521;53.146;6.556;2023-01-23T06:26:48;2.00;99.90
54622;DHT22;40521;53.146;6.556;2023-01-23T06:29:14;2.00;99.90
54622;DHT22;40521;53.146;6.556;2023-01-23T06:31:39;2.00;99.90
54622;DHT22;40521;53.146;6.556;2023-01-23T06:34:05;2.70;99.90
54622;DHT22;40521;53.146;6.556;2023-01-23T06:36:31;2.50;99.90
54622;DHT22;40521;53.146;6.556;2023-01-23T06:38:56;1.90;99.90
54622;DHT22;40521;53.146;6.556;2023-01-23T06:41:22;2.60;99.90
54622;DHT22;40521;53.146;6.556;2023-01-23T06:43:48;2.70;99.90
54622;DHT22;40521;53.146;6.556;2023-01-23T06:46:14;2.00;99.90
54622;DHT22;40521;53.146;6.556;2023-01-23T06:48:40;2.50;99.90
54622;DHT22;40521;53.146;6.556;2023-01-23T06:51:06;1.90;99.90
54622;DHT22;40521;53.146;6.556;2023-01-23T06:53:31;3.10;99.90
54622;DHT22;40521;53.146;6.556;2023-01-23T06:56:00;2.20;99.90
54622;DHT22;40521;53.146;6.556;2023-01-23T06:58:26;1.80;99.90
54622;DHT22;40521;53.146;6.556;2023-01-23T07:00:53;2.00;99.90
54622;DHT22;40521;53.146;6.556;2023-01-23T07:03:19;1.80;99.90
54622;DHT22;40521;53.146;6.556;2023-01-23T07:05:44;2.20;99.90
54622;DHT22;40521;53.146;6.556;2023-01-23T07:08:10;2.40;99.90
54622;DHT22;40521;53.146;6.556;2023-01-23T07:10:36;2.70;99.90
54622;DHT22;40521;53.146;6.556;2023-01-23T07:13:03;1.80;99.90
54622;DHT22;40521;53.146;6.556;2023-01-23T07:15:29;2.00;99.90
54622;DHT22;40521;53.146;6.556;2023-01-23T07:17:54;1.80;99.90
54622;DHT22;40521;53.146;6.556;2023-01-23T07:20:20;2.10;99.90
54622;DHT22;40521;53.146;6.556;2023-01-23T07:22:45;2.30;99.90
54622;DHT22;40521;53.146;6.556;2023-01-23T07:25:11;2.30;99.90
54622;DHT22;40521;53.146;6.556;2023-01-23T07:27:36;2.60;99.90
54622;DHT22;40521;53.146;6.556;2023-01-23T07:30:02;1.80;99.90
54622;DHT22;40521;53.146;6.556;2023-01-23T07:32:28;1.80;99.90
54622;DHT22;40521;53.146;6.556;2023-01-23T07:34:53;2.80;99.90
54622;DHT22;40521;53.146;6.556;2023-01-23T07:37:19;1.80;99.90
54622;DHT22;40521;53.146;6.556;2023-01-23T07:39:45;2.10;99.90
54622;DHT22;40521;53.146;6.556;2023-01-23T07:42:10;1.90;99.90
54622;DHT22;40521;53.146;6.556;2023-01-23T07:44:36;0.40;99.90
54622;DHT22;40521;53.146;6.556;2023-01-23T07:47:02;1.90;99.90
54622;DHT22;40521;53.146;6.556;2023-01-23T07:49:27;1.90;99.90
54622;DHT22;40521;53.146;6.556;2023-01-23T07:51:53;2.10;99.90
54622;DHT22;40521;53.146;6.556;2023-01-23T07:54:18;2.00;99.90
54622;DHT22;40521;53.146;6.556;2023-01-23T07:56:50;1.90;99.90
54622;DHT22;40521;53.146;6.556;2023-01-23T07:59:15;1.90;99.90
54622;DHT22;40521;53.146;6.556;2023-01-23T08:01:42;1.90;99.90
54622;DHT22;40521;53.146;6.556;2023-01-23T08:04:08;2.50;99.90
54622;DHT22;40521;53.146;6.556;2023-01-23T08:06:33;2.00;99.90
54622;DHT22;40521;53.146;6.556;2023-01-23T08:08:59;2.00;99.90
54622;DHT22;40521;53.146;6.556;2023-01-23T08:11:25;1.90;99.90
54622;DHT22;40521;53.146;6.556;2023-01-23T08:13:53;2.00;99.90
54622;DHT22;40521;53.146;6.556;2023-01-23T08:16:19;-0.40;99.90
54622;DHT22;40521;53.146;6.556;2023-01-23T08:18:44;2.00;99.90
54622;DHT22;40521;53.146;6.556;2023-01-23T08:21:10;1.90;99.90
54622;DHT22;40521;53.146;6.556;2023-01-23T08:23:35;2.00;99.90
54622;DHT22;40521;53.146;6.556;2023-01-23T08:26:03;2.30;99.90
54622;DHT22;40521;53.146;6.556;2023-01-23T08:28:29;2.10;99.90
54622;DHT22;40521;53.146;6.556;2023-01-23T08:30:54;2.20;99.90
54622;DHT22;40521;53.146;6.556;2023-01-23T08:33:24;2.10;99.90
54622;DHT22;40521;53.146;6.556;2023-01-23T08:35:53;2.10;99.90
54622;DHT22;40521;53.146;6.556;2023-01-23T08:38:19;2.10;99.90
54622;DHT22;40521;53.146;6.556;2023-01-23T08:40:46;2.50;99.90
54622;DHT22;40521;53.146;6.556;2023-01-23T08:43:12;2.10;99.90
54622;DHT22;40521;53.146;6.556;2023-01-23T08:45:44;2.90;99.90
54622;DHT22;40521;53.146;6.556;2023-01-23T08:48:11;2.20;99.90
54622;DHT22;40521;53.146;6.556;2023-01-23T08:50:37;2.20;99.90
54622;DHT22;40521;53.146;6.556;2023-01-23T08:53:03;2.20;99.90
54622;DHT22;40521;53.146;6.556;2023-01-23T08:55:29;2.20;99.90
54622;DHT22;40521;53.146;6.556;2023-01-23T08:57:54;2.20;99.90
54622;DHT22;40521;53.146;6.556;2023-01-23T09:00:20;2.20;99.90
54622;DHT22;40521;53.146;6.556;2023-01-23T09:02:46;2.30;99.90
54622;DHT22;40521;53.146;6.556;2023-01-23T09:05:12;2.70;99.90
54622;DHT22;40521;53.146;6.556;2023-01-23T09:07:38;2.30;99.90
54622;DHT22;40521;53.146;6.556;2023-01-23T09:10:05;2.30;99.90
54622;DHT22;40521;53.146;6.556;2023-01-23T09:12:31;2.30;99.90
54622;DHT22;40521;53.146;6.556;2023-01-23T09:14:57;2.30;99.90
54622;DHT22;40521;53.146;6.556;2023-01-23T09:17:23;3.40;99.90
54622;DHT22;40521;53.146;6.556;2023-01-23T09:19:48;2.40;99.90
54622;DHT22;40521;53.146;6.556;2023-01-23T09:22:15;2.40;99.90
54622;DHT22;40521;53.146;6.556;2023-01-23T09:24:40;2.40;99.90
54622;DHT22;40521;53.146;6.556;2023-01-23T09:27:06;2.50;99.90
54622;DHT22;40521;53.146;6.556;2023-01-23T09:29:32;2.50;99.90
54622;DHT22;40521;53.146;6.556;2023-01-23T09:31:57;2.60;99.90
54622;DHT22;40521;53.146;6.556;2023-01-23T09:34:23;2.60;99.90
54622;DHT22;40521;53.146;6.556;2023-01-23T09:36:49;2.60;99.90
54622;DHT22;40521;53.146;6.556;2023-01-23T09:39:14;2.60;99.90
54622;DHT22;40521;53.146;6.556;2023-01-23T09:41:40;2.60;99.90
54622;DHT22;40521;53.146;6.556;2023-01-23T09:46:38;2.60;99.90
54622;DHT22;40521;53.146;6.556;2023-01-23T09:49:52;2.70;99.90
54622;DHT22;40521;53.146;6.556;2023-01-23T09:51:53;2.70;99.90
54622;DHT22;40521;53.146;6.556;2023-01-23T09:56:46;2.70;99.90
54622;DHT22;40521;53.146;6.556;2023-01-23T09:59:13;3.10;99.90
54622;DHT22;40521;53.146;6.556;2023-01-23T10:01:39;2.80;99.90
54622;DHT22;40521;53.146;6.556;2023-01-23T10:04:05;2.80;99.90
54622;DHT22;40521;53.146;6.556;2023-01-23T10:07:08;2.80;99.90
54622;DHT22;40521;53.146;6.556;2023-01-23T10:09:31;2.80;99.90
54622;DHT22;40521;53.146;6.556;2023-01-23T10:25:20;3.00;99.90
54622;DHT22;40521;53.146;6.556;2023-01-23T10:27:47;3.00;99.90
54622;DHT22;40521;53.146;6.556;2023-01-23T10:30:26;2.90;99.90
54622;DHT22;40521;53.146;6.556;2023-01-23T10:35:43;3.00;99.90
54622;DHT22;40521;53.146;6.556;2023-01-23T10:40:55;3.00;99.90
54622;DHT22;40521;53.146;6.556;2023-01-23T10:43:40;3.20;99.90
54622;DHT22;40521;53.146;6.556;2023-01-23T10:46:09;3.00;99.90
54622;DHT22;40521;53.146;6.556;2023-01-23T10:48:40;3.00;99.90
54622;DHT22;40521;53.146;6.556;2023-01-23T10:56:25;3.10;99.90
54622;DHT22;40521;53.146;6.556;2023-01-23T10:58:53;3.10;99.90
54622;DHT22;40521;53.146;6.556;2023-01-23T11:01:24;3.30;99.90
54622;DHT22;40521;53.146;6.556;2023-01-23T11:03:50;3.00;99.90
54622;DHT22;40521;53.146;6.556;2023-01-23T11:06:16;3.00;99.90
54622;DHT22;40521;53.146;6.556;2023-01-23T11:08:55;2.90;99.90
54622;DHT22;40521;53.146;6.556;2023-01-23T11:11:25;3.00;99.90
54622;DHT22;40521;53.146;6.556;2023-01-23T11:14:09;3.00;99.90
54622;DHT22;40521;53.146;6.556;2023-01-23T11:16:35;3.00;99.90
54622;DHT22;40521;53.146;6.556;2023-01-23T11:21:34;3.20;99.90
54622;DHT22;40521;53.146;6.556;2023-01-23T11:24:14;3.20;99.90
54622;DHT22;40521;53.146;6.556;2023-01-23T11:26:41;3.30;99.90
54622;DHT22;40521;53.146;6.556;2023-01-23T11:29:21;3.30;99.90
54622;DHT22;40521;53.146;6.556;2023-01-23T11:31:48;3.40;99.90
54622;DHT22;40521;53.146;6.556;2023-01-23T11:34:14;3.30;99.90
54622;DHT22;40521;53.146;6.556;2023-01-23T11:36:53;3.30;99.90
54622;DHT22;40521;53.146;6.556;2023-01-23T11:39:31;3.40;99.90
54622;DHT22;40521;53.146;6.556;2023-01-23T11:41:58;3.40;99.90
54622;DHT22;40521;53.146;6.556;2023-01-23T11:44:24;3.30;99.90
54622;DHT22;40521;53.146;6.556;2023-01-23T12:05:32;3.60;99.90
54622;DHT22;40521;53.146;6.556;2023-01-23T12:07:36;3.60;99.90
54622;DHT22;40521;53.146;6.556;2023-01-23T12:10:07;3.60;99.90
54622;DHT22;40521;53.146;6.556;2023-01-23T12:23:35;3.70;99.90
54622;DHT22;40521;53.146;6.556;2023-01-23T12:26:17;3.70;99.90
54622;DHT22;40521;53.146;6.556;2023-01-23T12:31:49;3.60;99.90
54622;DHT22;40521;53.146;6.556;2023-01-23T12:37:14;3.70;99.90
54622;DHT22;40521;53.146;6.556;2023-01-23T12:42:20;3.50;99.90
54622;DHT22;40521;53.146;6.556;2023-01-23T12:44:53;3.60;99.90
54622;DHT22;40521;53.146;6.556;2023-01-23T12:47:23;3.60;99.90
54622;DHT22;40521;53.146;6.556;2023-01-23T12:49:50;3.50;99.90
54622;DHT22;40521;53.146;6.556;2023-01-23T12:52:27;3.50;99.90
54622;DHT22;40521;53.146;6.556;2023-01-23T12:55:16;3.50;99.90
54622;DHT22;40521;53.146;6.556;2023-01-23T12:57:43;3.50;99.90
54622;DHT22;40521;53.146;6.556;2023-01-23T13:11:07;3.50;99.90
54622;DHT22;40521;53.146;6.556;2023-01-23T13:13:52;3.50;99.90
54622;DHT22;40521;53.146;6.556;2023-01-23T13:16:18;3.50;99.90
54622;DHT22;40521;53.146;6.556;2023-01-23T13:18:51;3.40;99.90
54622;DHT22;40521;53.146;6.556;2023-01-23T13:21:36;3.40;99.90
54622;DHT22;40521;53.146;6.556;2023-01-23T13:24:26;3.50;99.90
54622;DHT22;40521;53.146;6.556;2023-01-23T13:29:57;3.40;99.90
54622;DHT22;40521;53.146;6.556;2023-01-23T13:32:23;3.40;99.90
54622;DHT22;40521;53.146;6.556;2023-01-23T13:34:52;3.40;99.90
54622;DHT22;40521;53.146;6.556;2023-01-23T13:40:16;3.40;99.90
54622;DHT22;40521;53.146;6.556;2023-01-23T13:42:42;3.20;99.90
54622;DHT22;40521;53.146;6.556;2023-01-23T13:47:52;3.30;99.90
54622;DHT22;40521;53.146;6.556;2023-01-23T13:50:39;3.30;99.90
54622;DHT22;40521;53.146;6.556;2023-01-23T13:53:21;3.30;99.90
54622;DHT22;40521;53.146;6.556;2023-01-23T13:56:17;3.30;99.90
54622;DHT22;40521;53.146;6.556;2023-01-23T13:59:02;3.30;99.90
54622;DHT22;40521;53.146;6.556;2023-01-23T14:01:28;3.30;99.90
54622;DHT22;40521;53.146;6.556;2023-01-23T14:04:17;3.30;99.90
54622;DHT22;40521;53.146;6.556;2023-01-23T14:07:02;3.30;99.90
54622;DHT22;40521;53.146;6.556;2023-01-23T14:09:29;3.30;99.90
54622;DHT22;40521;53.146;6.556;2023-01-23T14:11:55;3.50;99.90
54622;DHT22;40521;53.146;6.556;2023-01-23T14:14:21;3.30;99.90
54622;DHT22;40521;53.146;6.556;2023-01-23T14:17:06;3.30;99.90
54622;DHT22;40521;53.146;6.556;2023-01-23T14:19:31;3.30;99.90
54622;DHT22;40521;53.146;6.556;2023-01-23T14:21:58;3.40;99.90
54622;DHT22;40521;53.146;6.556;2023-01-23T14:27:15;3.40;99.90
54622;DHT22;40521;53.146;6.556;2023-01-23T14:29:54;3.30;99.90
54622;DHT22;40521;53.146;6.556;2023-01-23T14:32:23;3.40;99.90
54622;DHT22;40521;53.146;6.556;2023-01-23T14:34:49;3.40;99.90
54622;DHT22;40521;53.146;6.556;2023-01-23T14:37:15;3.40;99.90
54622;DHT22;40521;53.146;6.556;2023-01-23T14:39:42;3.30;99.90
54622;DHT22;40521;53.146;6.556;2023-01-23T14:42:12;3.30;99.90
54622;DHT22;40521;53.146;6.556;2023-01-23T14:44:45;3.70;99.90
54622;DHT22;40521;53.146;6.556;2023-01-23T14:47:15;3.30;99.90
54622;DHT22;40521;53.146;6.556;2023-01-23T14:49:41;3.30;99.90
54622;DHT22;40521;53.146;6.556;2023-01-23T14:52:18;3.30;99.90
54622;DHT22;40521;53.146;6.556;2023-01-23T14:54:45;3.40;99.90
54622;DHT22;40521;53.146;6.556;2023-01-23T14:57:10;3.30;99.90
54622;DHT22;40521;53.146;6.556;2023-01-23T14:59:37;3.30;99.90
54622;DHT22;40521;53.146;6.556;2023-01-23T15:07:33;3.30;99.90
54622;DHT22;40521;53.146;6.556;2023-01-23T15:09:59;3.30;99.90
54622;DHT22;40521;53.146;6.556;2023-01-23T15:12:24;3.30;99.90
54622;DHT22;40521;53.146;6.556;2023-01-23T15:14:51;3.20;99.90
54622;DHT22;40521;53.146;6.556;2023-01-23T15:17:19;3.20;99.90
54622;DHT22;40521;53.146;6.556;2023-01-23T15:19:49;3.20;99.90
54622;DHT22;40521;53.146;6.556;2023-01-23T15:24:44;3.20;99.90
54622;DHT22;40521;53.146;6.556;2023-01-23T15:32:39;3.20;99.90
54622;DHT22;40521;53.146;6.556;2023-01-23T15:35:13;3.50;99.90
54622;DHT22;40521;53.146;6.556;2023-01-23T15:37:44;3.10;99.90
54622;DHT22;40521;53.146;6.556;2023-01-23T15:40:17;3.10;99.90
54622;DHT22;40521;53.146;6.556;2023-01-23T15:42:50;3.10;99.90
54622;DHT22;40521;53.146;6.556;2023-01-23T15:45:24;3.10;99.90
54622;DHT22;40521;53.146;6.556;2023-01-23T15:47:50;3.10;99.90
54622;DHT22;40521;53.146;6.556;2023-01-23T15:50:21;3.50;99.90
54622;DHT22;40521;53.146;6.556;2023-01-23T15:52:47;3.10;99.90
54622;DHT22;40521;53.146;6.556;2023-01-23T15:55:14;3.00;99.90
54622;DHT22;40521;53.146;6.556;2023-01-23T15:57:39;3.00;99.90
54622;DHT22;40521;53.146;6.556;2023-01-23T16:00:14;3.00;99.90
54622;DHT22;40521;53.146;6.556;2023-01-23T16:02:40;3.00;99.90
54622;DHT22;40521;53.146;6.556;2023-01-23T16:05:05;3.10;99.90
54622;DHT22;40521;53.146;6.556;2023-01-23T16:07:38;3.00;99.90
54622;DHT22;40521;53.146;6.556;2023-01-23T16:10:10;3.00;99.90
54622;DHT22;40521;53.146;6.556;2023-01-23T16:12:39;3.00;99.90
54622;DHT22;40521;53.146;6.556;2023-01-23T16:15:15;2.90;99.90
54622;DHT22;40521;53.146;6.556;2023-01-23T16:17:42;2.90;99.90
54622;DHT22;40521;53.146;6.556;2023-01-23T16:20:18;3.00;99.90
54622;DHT22;40521;53.146;6.556;2023-01-23T16:22:45;3.00;99.90
54622;DHT22;40521;53.146;6.556;2023-01-23T16:25:31;2.90;99.90
54622;DHT22;40521;53.146;6.556;2023-01-23T16:27:57;2.90;99.90
54622;DHT22;40521;53.146;6.556;2023-01-23T16:30:23;3.00;99.90
54622;DHT22;40521;53.146;6.556;2023-01-23T16:32:50;3.00;99.90
54622;DHT22;40521;53.146;6.556;2023-01-23T16:35:15;3.00;99.90
54622;DHT22;40521;53.146;6.556;2023-01-23T16:37:45;2.90;99.90
54622;DHT22;40521;53.146;6.556;2023-01-23T16:40:18;2.90;99.90
54622;DHT22;40521;53.146;6.556;2023-01-23T16:42:45;2.90;99.90
54622;DHT22;40521;53.146;6.556;2023-01-23T16:45:15;2.90;99.90
54622;DHT22;40521;53.146;6.556;2023-01-23T16:47:40;2.90;99.90
54622;DHT22;40521;53.146;6.556;2023-01-23T16:50:07;3.00;99.90
54622;DHT22;40521;53.146;6.556;2023-01-23T16:52:35;2.90;99.90
54622;DHT22;40521;53.146;6.556;2023-01-23T16:55:00;2.80;99.90
54622;DHT22;40521;53.146;6.556;2023-01-23T16:57:28;2.80;99.90
54622;DHT22;40521;53.146;6.556;2023-01-23T16:59:54;2.90;99.90
54622;DHT22;40521;53.146;6.556;2023-01-23T17:02:21;2.80;99.90
54622;DHT22;40521;53.146;6.556;2023-01-23T17:04:50;2.80;99.90
54622;DHT22;40521;53.146;6.556;2023-01-23T17:07:16;2.70;99.90
54622;DHT22;40521;53.146;6.556;2023-01-23T17:09:42;2.80;99.90
54622;DHT22;40521;53.146;6.556;2023-01-23T17:12:12;2.80;99.90
54622;DHT22;40521;53.146;6.556;2023-01-23T17:14:39;2.80;99.90
54622;DHT22;40521;53.146;6.556;2023-01-23T17:17:08;2.80;99.90
54622;DHT22;40521;53.146;6.556;2023-01-23T17:19:35;2.80;99.90
54622;DHT22;40521;53.146;6.556;2023-01-23T17:22:14;2.80;99.90
54622;DHT22;40521;53.146;6.556;2023-01-23T17:24:42;2.10;99.90
54622;DHT22;40521;53.146;6.556;2023-01-23T17:27:08;2.90;99.90
54622;DHT22;40521;53.146;6.556;2023-01-23T17:29:33;2.90;99.90
54622;DHT22;40521;53.146;6.556;2023-01-23T17:31:59;2.90;99.90
54622;DHT22;40521;53.146;6.556;2023-01-23T17:34:25;2.90;99.90
54622;DHT22;40521;53.146;6.556;2023-01-23T17:36:51;2.90;99.90
54622;DHT22;40521;53.146;6.556;2023-01-23T17:39:18;2.90;99.90
54622;DHT22;40521;53.146;6.556;2023-01-23T17:41:44;2.80;99.90